Time;durP1;ratioP1;P1;durP2;ratioP2;P2;SDS_P1;SDS_P2;PMS_P1;PMS_P2;Temp;Humidity;BMP_temperature;BMP_pressure;BME280_temperature;BME280_humidity;BME280_pressure;Samples;Min_cycle;Max_cycle;Signal;HPM_P1;HPM_P2
2022/02/11 00:00:50;;;;;;;7.20;3.85;;;;;;;3.52;100.00;98626.53;10396631;28;20047;-64
2022/02/11 00:06:19;;;;;;;3.35;2.30;;;;;;;3.49;100.00;98629.41;10367721;28;20050;-65
2022/02/11 00:11:30;;;;;;;4.95;2.83;;;;;;;3.50;100.00;98623.13;10369178;28;20132;-64
2022/02/11 00:16:36;;;;;;;4.07;2.40;;;;;;;3.44;100.00;98620.94;10360583;28;20064;-65
2022/02/11 00:21:44;;;;;;;2.80;2.13;;;;;;;3.42;100.00;98620.19;10364629;28;20065;-65
2022/02/11 00:27:07;;;;;;;3.85;2.03;;;;;;;3.22;100.00;98620.66;10368806;28;20077;-64
2022/02/11 00:32:17;;;;;;;3.95;2.50;;;;;;;3.29;100.00;98621.06;10365228;28;20057;-65
2022/02/11 00:37:24;;;;;;;4.20;2.55;;;;;;;3.24;100.00;98618.75;10378509;28;20050;-65
2022/02/11 01:04:03;;;;;;;2.75;2.55;;;;;;;3.06;100.00;98593.41;10366824;28;20144;-65
2022/02/11 01:09:07;;;;;;;2.72;2.53;;;;;;;2.98;100.00;98604.63;10383979;28;20116;-65
2022/02/11 01:14:11;;;;;;;3.17;2.50;;;;;;;2.97;100.00;98602.94;10378667;28;20050;-65
2022/02/11 01:19:22;;;;;;;3.17;2.75;;;;;;;2.98;100.00;98596.66;10385885;28;20046;-64
2022/02/11 01:24:47;;;;;;;4.10;2.80;;;;;;;2.92;100.00;98600.59;10382438;28;20494;-66
2022/02/11 01:35:19;;;;;;;;;;;;;;;2.84;100.00;98584.28;10388081;28;20124;-64
2022/02/11 01:51:29;;;;;;;3.10;2.00;;;;;;;2.79;100.00;98586.44;10391536;28;20080;-64
2022/02/11 01:56:45;;;;;;;2.65;1.90;;;;;;;2.73;100.00;98593.06;10383327;28;20516;-66
2022/02/11 02:23:28;;;;;;;;;;;;;;;2.25;100.00;98583.03;10376304;28;20577;-64
2022/02/11 02:34:23;;;;;;;1.98;1.23;;;;;;;2.07;100.00;98581.63;10362200;22;20141;-60
2022/02/11 02:43:24;;;;;;;2.17;1.50;;;;;;;2.04;100.00;98572.06;10359862;28;20397;-62
2022/02/11 02:50:46;;;;;;;1.50;1.30;;;;;;;1.96;100.00;98569.03;10317806;28;20195;-61
2022/02/11 03:01:34;;;;;;;1.60;1.50;;;;;;;1.89;100.00;98568.59;10316614;28;20061;-61
2022/02/11 03:49:28;;;;;;;63.03;2.78;;;;;;;0.88;100.00;98580.38;10285341;28;20530;-63
2022/02/11 04:21:58;;;;;;;137.48;3.50;;;;;;;0.53;100.00;98623.16;10324638;28;20486;-58
2022/02/11 05:04:35;;;;;;;15.68;2.67;;;;;;;0.25;100.00;98690.22;10319448;28;20072;-56
2022/02/11 05:09:39;;;;;;;2.25;1.90;;;;;;;0.17;100.00;98698.66;10304549;28;20078;-60
2022/02/11 05:14:43;;;;;;;3.05;2.38;;;;;;;0.21;100.00;98701.97;10306049;28;20088;-59
2022/02/11 05:19:46;;;;;;;3.38;3.08;;;;;;;0.19;100.00;98699.38;10321654;28;20410;-57
2022/02/11 05:24:50;;;;;;;6.22;3.22;;;;;;;0.17;100.00;98705.72;10304195;28;20062;-61
2022/02/11 05:29:53;;;;;;;6.30;3.20;;;;;;;0.17;100.00;98705.72;10322184;28;20302;-60
2022/02/11 05:34:57;;;;;;;3.63;3.28;;;;;;;0.04;100.00;98722.31;10321501;28;20057;-59
2022/02/11 05:40:03;;;;;;;5.93;4.20;;;;;;;0.01;100.00;98726.94;10318749;28;20038;-61
2022/02/11 05:45:09;;;;;;;31.30;5.70;;;;;;;-0.01;100.00;98732.34;10304272;28;20250;-59
2022/02/11 05:50:13;;;;;;;7.93;5.10;;;;;;;-0.02;100.00;98734.13;10302771;28;20418;-59
2022/02/11 05:55:31;;;;;;;8.68;5.90;;;;;;;-0.01;100.00;98725.22;10319748;28;20405;-60
2022/02/11 06:00:34;;;;;;;7.60;6.00;;;;;;;0.05;100.00;98715.25;10302147;28;20046;-63
2022/02/11 06:05:38;;;;;;;7.30;5.85;;;;;;;0.04;100.00;98732.06;10320843;28;20070;-63
2022/02/11 06:10:43;;;;;;;10.75;6.30;;;;;;;0.03;100.00;98728.56;10321706;28;20495;-61
2022/02/11 06:15:47;;;;;;;8.10;5.70;;;;;;;0.07;100.00;98721.28;10314590;28;20409;-59
2022/02/11 06:20:51;;;;;;;8.43;6.00;;;;;;;0.09;100.00;98728.22;10322122;28;20126;-63
2022/02/11 06:25:55;;;;;;;8.52;6.43;;;;;;;0.13;100.00;98747.44;10320142;28;20522;-59
2022/02/11 06:31:00;;;;;;;8.02;6.05;;;;;;;0.13;100.00;98752.75;10303161;28;20058;-65
2022/02/11 06:36:04;;;;;;;8.68;6.15;;;;;;;0.15;100.00;98761.47;10301170;28;20058;-62
2022/02/11 06:41:09;;;;;;;9.45;6.30;;;;;;;0.10;100.00;98782.06;10320570;28;20053;-61
2022/02/11 06:46:12;;;;;;;8.30;5.57;;;;;;;0.04;100.00;98785.06;10297632;28;20046;-59
2022/02/11 06:51:16;;;;;;;8.00;5.63;;;;;;;0.00;100.00;98792.31;10316649;28;20223;-65
2022/02/11 06:56:20;;;;;;;7.07;4.35;;;;;;;0.05;100.00;98808.81;10318722;28;20062;-59
2022/02/11 07:01:25;;;;;;;6.53;3.53;;;;;;;0.11;100.00;98797.00;10316334;28;20491;-59
2022/02/11 07:06:28;;;;;;;4.05;2.28;;;;;;;0.07;100.00;98803.41;10317077;28;20068;-57
2022/02/11 07:11:32;;;;;;;3.63;2.13;;;;;;;-0.02;100.00;98815.41;10320621;28;20141;-57
2022/02/11 07:16:35;;;;;;;3.22;1.90;;;;;;;-0.06;100.00;98813.84;10313960;28;20635;-59
2022/02/11 07:21:40;;;;;;;4.38;2.30;;;;;;;-0.05;100.00;98816.41;10319215;28;20045;-55
2022/02/11 07:26:45;;;;;;;4.43;2.80;;;;;;;0.09;100.00;98826.25;10317649;28;20125;-58
2022/02/11 07:31:48;;;;;;;4.60;2.60;;;;;;;0.09;100.00;98825.38;10298489;28;20065;-63
2022/02/11 07:36:51;;;;;;;4.30;1.92;;;;;;;0.17;100.00;98830.25;10319075;28;20056;-63
2022/02/11 07:42:15;;;;;;;3.88;2.35;;;;;;;0.21;100.00;98824.69;10319964;28;20046;-63
2022/02/11 07:47:18;;;;;;;5.50;2.40;;;;;;;0.18;100.00;98832.81;10317224;28;20050;-56
2022/02/11 07:52:22;;;;;;;5.18;3.20;;;;;;;0.21;100.00;98830.00;10315338;28;20038;-58
2022/02/11 07:57:27;;;;;;;6.57;3.60;;;;;;;0.24;100.00;98836.91;10316777;28;20042;-56
2022/02/11 08:02:31;;;;;;;4.97;3.20;;;;;;;0.27;100.00;98834.97;10314992;28;20046;-62
2022/02/11 08:07:35;;;;;;;6.57;3.88;;;;;;;0.29;100.00;98838.34;10315825;28;20046;-61
2022/02/11 08:12:40;;;;;;;6.55;3.03;;;;;;;0.35;100.00;98846.91;10297497;28;20150;-64
2022/02/11 08:17:43;;;;;;;8.05;3.08;;;;;;;0.46;100.00;98844.53;10298826;28;20054;-59
2022/02/11 08:22:46;;;;;;;8.95;3.22;;;;;;;0.57;100.00;98849.22;10315163;28;20491;-62
2022/02/11 08:27:54;;;;;;;4.57;2.67;;;;;;;0.69;100.00;98845.00;10314143;28;20473;-51
2022/02/11 08:33:21;;;;;;;4.57;2.50;;;;;;;0.80;100.00;98852.34;10318238;28;20406;-58
2022/02/11 08:38:26;;;;;;;5.63;2.10;;;;;;;0.84;100.00;98837.94;10313254;28;20113;-58
2022/02/11 08:43:31;;;;;;;4.18;2.20;;;;;;;0.96;100.00;98857.63;10313461;28;20110;-57
2022/02/11 08:48:35;;;;;;;4.32;1.98;;;;;;;1.03;100.00;98853.66;10314946;28;20058;-58
2022/02/11 08:53:38;;;;;;;3.28;1.67;;;;;;;1.09;100.00;98861.25;10298326;28;20421;-58
2022/02/11 08:58:43;;;;;;;4.93;1.80;;;;;;;1.19;100.00;98865.06;10302251;28;20076;-56
2022/02/11 09:03:46;;;;;;;2.88;1.73;;;;;;;1.24;100.00;98870.09;10303580;28;20129;-58
2022/02/11 09:08:51;;;;;;;5.13;1.70;;;;;;;1.32;100.00;98874.97;10322048;28;20129;-58
2022/02/11 09:13:55;;;;;;;4.40;1.90;;;;;;;1.36;100.00;98876.47;10324070;28;20414;-58
2022/02/11 09:18:59;;;;;;;3.53;1.80;;;;;;;1.40;100.00;98874.50;10318586;28;20046;-57
2022/02/11 09:24:02;;;;;;;6.40;2.55;;;;;;;1.51;100.00;98880.03;10320150;28;20044;-56
2022/02/11 09:29:07;;;;;;;3.55;2.20;;;;;;;1.64;100.00;98885.44;10301546;28;20042;-56
2022/02/11 09:34:12;;;;;;;3.97;2.30;;;;;;;1.86;100.00;98885.00;10323304;28;20521;-58
2022/02/11 09:39:17;;;;;;;3.42;2.03;;;;;;;2.06;100.00;98891.69;10322920;28;20199;-58
2022/02/11 09:44:24;;;;;;;4.30;2.00;;;;;;;2.08;100.00;98888.97;10322865;28;20046;-57
2022/02/11 09:49:28;;;;;;;5.28;2.30;;;;;;;2.11;100.00;98896.75;10321832;28;20061;-57
2022/02/11 09:54:32;;;;;;;4.10;2.03;;;;;;;2.18;100.00;98900.72;10322011;28;20357;-57
2022/02/11 09:59:37;;;;;;;4.03;2.05;;;;;;;2.25;100.00;98903.84;10302455;28;20042;-56
2022/02/11 10:04:57;;;;;;;5.05;2.55;;;;;;;2.35;100.00;98926.25;10321130;28;20056;-57
2022/02/11 10:10:00;;;;;;;2.90;2.00;;;;;;;2.41;100.00;98931.16;10316954;28;20116;-57
2022/02/11 10:15:18;;;;;;;4.32;2.05;;;;;;;2.51;100.00;98934.13;10302637;28;20054;-54
2022/02/11 10:20:22;;;;;;;5.55;2.00;;;;;;;2.60;100.00;98933.53;10317873;28;20042;-55
2022/02/11 10:25:26;;;;;;;6.00;2.38;;;;;;;2.69;100.00;98940.06;10318612;28;20511;-58
2022/02/11 10:30:30;;;;;;;3.70;2.00;;;;;;;2.72;100.00;98958.50;10319238;28;20606;-57
2022/02/11 10:35:34;;;;;;;3.33;1.63;;;;;;;2.77;100.00;98956.38;10318619;28;20117;-54
2022/02/11 10:40:40;;;;;;;2.42;1.60;;;;;;;2.84;100.00;98943.53;10320510;28;20047;-55
2022/02/11 10:45:48;;;;;;;3.00;1.48;;;;;;;2.91;100.00;98946.66;10319036;28;20046;-54
2022/02/11 10:50:54;;;;;;;3.15;1.63;;;;;;;3.00;100.00;98930.06;10316187;28;20073;-57
2022/02/11 10:55:59;;;;;;;3.55;1.40;;;;;;;3.00;100.00;98924.75;10315209;28;20046;-57
2022/02/11 11:01:05;;;;;;;4.70;1.20;;;;;;;3.03;100.00;98932.53;10315508;28;20080;-58
2022/02/11 11:06:09;;;;;;;2.33;1.20;;;;;;;3.12;100.00;98922.28;10317126;28;20042;-56
2022/02/11 11:11:13;;;;;;;2.97;1.17;;;;;;;3.17;100.00;98923.66;10318386;28;20129;-57
2022/02/11 11:16:18;;;;;;;1.92;1.10;;;;;;;3.23;100.00;98931.25;10317839;28;20053;-54
2022/02/11 11:21:22;;;;;;;2.88;1.13;;;;;;;3.27;100.00;98937.19;10318411;28;20050;-58
2022/02/11 11:26:37;;;;;;;2.17;1.20;;;;;;;3.34;100.00;98948.31;10316491;28;20053;-57
2022/02/11 11:31:53;;;;;;;1.90;1.08;;;;;;;3.36;100.00;98951.72;10315549;28;20566;-57
2022/02/11 11:37:04;;;;;;;2.42;1.20;;;;;;;3.38;100.00;98948.00;10312241;28;20042;-55
2022/02/11 11:42:14;;;;;;;1.90;1.00;;;;;;;3.27;100.00;98947.00;10317045;28;20041;-59
2022/02/11 11:47:29;;;;;;;2.75;1.08;;;;;;;3.28;100.00;98956.72;10316503;28;20696;-60
2022/02/11 11:52:40;;;;;;;2.33;1.10;;;;;;;3.23;100.00;98941.88;10315584;28;20059;-60
2022/02/11 11:57:47;;;;;;;2.95;1.30;;;;;;;3.20;100.00;98947.41;10315655;28;20419;-55
2022/02/11 12:02:55;;;;;;;1.38;0.93;;;;;;;3.22;100.00;98950.00;10315722;28;20061;-59
2022/02/11 12:08:00;;;;;;;2.42;1.27;;;;;;;3.26;100.00;98977.25;10315012;28;20578;-55
2022/02/11 12:13:05;;;;;;;1.98;1.02;;;;;;;3.16;100.00;98977.00;10317170;28;20046;-63
2022/02/11 12:18:11;;;;;;;2.95;1.00;;;;;;;3.17;100.00;98992.03;10297028;28;20430;-60
2022/02/11 12:28:38;;;;;;;3.95;1.00;;;;;;;3.30;100.00;98979.63;10298587;28;20056;-56
2022/02/11 12:33:44;;;;;;;3.45;1.10;;;;;;;3.34;100.00;98975.81;10323151;28;21293;-61
2022/02/11 12:38:58;;;;;;;2.35;0.90;;;;;;;3.34;100.00;98970.47;10316997;28;20085;-58
2022/02/11 12:44:03;;;;;;;2.35;1.17;;;;;;;3.42;100.00;98977.09;10322357;28;20104;-61
2022/02/11 12:49:09;;;;;;;2.58;0.82;;;;;;;3.37;100.00;99001.38;10304446;28;20042;-56
2022/02/11 12:54:14;;;;;;;2.85;1.00;;;;;;;3.29;100.00;98998.38;10324199;28;20399;-60
2022/02/11 12:59:17;;;;;;;2.30;0.90;;;;;;;3.22;100.00;98997.91;10323404;28;20516;-60
2022/02/11 13:04:22;;;;;;;3.38;0.98;;;;;;;3.24;100.00;99006.63;10305945;28;20054;-57
2022/02/11 13:09:26;;;;;;;3.15;1.10;;;;;;;3.22;100.00;99005.91;10322932;28;20499;-58
2022/02/11 13:14:45;;;;;;;1.80;0.85;;;;;;;3.25;100.00;99003.03;10319837;28;20045;-60
2022/02/11 13:19:51;;;;;;;4.45;1.20;;;;;;;3.20;100.00;99016.63;10323120;28;20129;-54
2022/02/11 13:24:55;;;;;;;3.17;1.00;;;;;;;3.20;100.00;99011.31;10320535;28;20454;-60
2022/02/11 13:30:02;;;;;;;2.90;1.08;;;;;;;3.18;100.00;99017.69;10321188;28;20042;-60
2022/02/11 13:35:11;;;;;;;3.47;1.00;;;;;;;3.17;100.00;99023.97;10242348;29;20043;-60
2022/02/11 13:40:21;;;;;;;3.03;0.95;;;;;;;3.21;100.00;99054.78;10242285;28;20500;-59
2022/02/11 13:45:25;;;;;;;3.88;0.90;;;;;;;3.07;100.00;99053.88;10239089;29;20429;-59
2022/02/11 13:50:30;;;;;;;3.08;1.00;;;;;;;2.92;100.00;99057.50;10243067;28;20051;-56
2022/02/11 13:55:34;;;;;;;1.92;0.90;;;;;;;2.91;100.00;99077.06;10241745;29;20054;-61
2022/02/11 14:00:40;;;;;;;4.40;1.20;;;;;;;2.93;100.00;99080.50;10241138;29;20073;-55
2022/02/11 14:05:45;;;;;;;3.65;0.90;;;;;;;2.97;100.00;99083.81;10242524;28;20059;-61
2022/02/11 14:11:07;;;;;;;2.95;1.00;;;;;;;2.93;100.00;99089.34;10239274;29;20408;-61
2022/02/11 14:16:10;;;;;;;4.38;1.00;;;;;;;2.84;100.00;99105.03;10238228;28;20043;-62
2022/02/11 14:21:18;;;;;;;3.00;0.98;;;;;;;2.88;100.00;99101.25;10241899;28;20582;-61
2022/02/11 14:26:21;;;;;;;3.28;1.02;;;;;;;2.95;100.00;99110.53;10238839;29;20050;-60
2022/02/11 14:31:25;;;;;;;3.35;0.90;;;;;;;3.06;100.00;99105.41;10260089;28;20055;-61
2022/02/11 14:36:29;;;;;;;3.92;1.00;;;;;;;3.12;100.00;99111.31;10320470;28;20510;-63
2022/02/11 14:41:47;;;;;;;2.38;0.80;;;;;;;3.13;100.00;99111.19;10318126;28;20042;-63
2022/02/11 14:46:51;;;;;;;3.17;1.10;;;;;;;3.05;100.00;99127.66;10319522;28;20060;-59
2022/02/11 14:51:58;;;;;;;2.78;1.13;;;;;;;3.01;100.00;99127.94;10315826;28;20092;-62
2022/02/11 14:57:01;;;;;;;1.98;1.00;;;;;;;3.00;100.00;99136.88;10313259;28;20121;-56
2022/02/11 15:02:07;;;;;;;3.63;0.90;;;;;;;3.00;100.00;99145.69;10319308;28;20093;-59
2022/02/11 15:07:12;;;;;;;2.90;0.85;;;;;;;3.02;100.00;99158.94;10319394;28;20161;-60
2022/02/11 15:12:15;;;;;;;1.90;0.65;;;;;;;3.08;100.00;99162.06;10318410;28;20125;-61
2022/02/11 15:17:19;;;;;;;2.92;0.82;;;;;;;3.07;100.00;99157.69;10318550;28;20050;-62
2022/02/11 15:22:23;;;;;;;3.35;0.90;;;;;;;3.08;100.00;99159.41;10317476;28;20057;-58
2022/02/11 15:27:27;;;;;;;1.95;0.70;;;;;;;3.07;100.00;99183.44;10317125;28;20054;-60
2022/02/11 15:32:30;;;;;;;1.45;0.70;;;;;;;3.06;100.00;99195.03;10317981;28;20133;-59
2022/02/11 15:37:35;;;;;;;1.80;0.65;;;;;;;3.12;100.00;99199.16;10299624;28;20141;-55
2022/02/11 15:42:38;;;;;;;4.85;0.70;;;;;;;3.11;100.00;99218.75;10296965;28;20050;-61
2022/02/11 15:47:42;;;;;;;3.65;0.88;;;;;;;2.98;100.00;99224.81;10316538;28;20038;-56
2022/02/11 15:52:48;;;;;;;2.65;0.80;;;;;;;2.92;100.00;99230.50;10297231;28;20046;-59
2022/02/11 15:57:51;;;;;;;3.20;0.93;;;;;;;2.88;100.00;99235.16;10317402;28;20864;-58
2022/02/11 16:02:56;;;;;;;3.47;0.80;;;;;;;2.84;100.00;99244.25;10314578;28;20453;-60
2022/02/11 16:08:01;;;;;;;1.95;0.70;;;;;;;2.85;100.00;99253.13;10314348;28;20590;-60
2022/02/11 16:13:04;;;;;;;2.45;0.90;;;;;;;2.82;100.00;99267.47;10313210;28;20054;-61
2022/02/11 16:18:14;;;;;;;2.63;0.80;;;;;;;2.77;100.00;99273.03;10313614;28;20400;-60
2022/02/11 16:23:20;;;;;;;4.18;1.00;;;;;;;2.74;100.00;99302.53;10310827;28;20042;-60
2022/02/11 16:28:23;;;;;;;2.40;0.90;;;;;;;2.69;100.00;99319.69;10294890;28;20050;-60
2022/02/11 16:33:27;;;;;;;3.40;1.30;;;;;;;2.68;100.00;99328.63;10311692;28;20052;-58
2022/02/11 16:38:33;;;;;;;1.63;0.90;;;;;;;2.73;100.00;99345.16;10310534;28;20062;-59
2022/02/11 16:43:37;;;;;;;1.35;0.70;;;;;;;2.76;100.00;99347.66;10314924;28;20410;-61
2022/02/11 16:48:40;;;;;;;2.75;1.02;;;;;;;2.77;100.00;99382.16;10297752;28;20051;-61
2022/02/11 16:53:45;;;;;;;2.13;0.90;;;;;;;2.75;100.00;99389.38;10316558;28;20483;-61
2022/02/11 16:58:48;;;;;;;1.50;0.85;;;;;;;2.73;100.00;99403.72;10313294;28;20093;-60
2022/02/11 17:03:51;;;;;;;2.30;1.10;;;;;;;2.71;100.00;99414.44;10298831;28;21431;-58
2022/02/11 17:08:58;;;;;;;1.58;1.10;;;;;;;2.69;100.00;99434.97;10295893;28;20058;-56
2022/02/11 17:14:03;;;;;;;1.98;1.00;;;;;;;2.66;100.00;99468.88;10298034;28;20049;-57
2022/02/11 17:19:06;;;;;;;1.30;1.20;;;;;;;2.63;100.00;99475.22;10319312;28;20049;-62
2022/02/11 17:24:21;;;;;;;1.58;1.10;;;;;;;2.54;100.00;99476.59;10321400;28;20042;-60
2022/02/11 17:29:33;;;;;;;1.30;1.17;;;;;;;2.47;100.00;99502.66;10320339;28;20067;-60
2022/02/11 17:34:37;;;;;;;1.50;1.40;;;;;;;2.42;100.00;99507.34;10321246;28;20121;-60
2022/02/11 17:39:42;;;;;;;1.23;1.10;;;;;;;2.36;100.00;99536.97;10322178;28;20120;-60
2022/02/11 17:44:46;;;;;;;2.55;1.55;;;;;;;2.33;100.00;99560.19;10322710;28;20042;-60
2022/02/11 17:49:49;;;;;;;1.60;1.50;;;;;;;2.19;100.00;99572.41;10322489;28;20038;-60
2022/02/11 17:54:54;;;;;;;2.35;1.63;;;;;;;2.14;100.00;99585.94;10322333;28;20128;-62
2022/02/11 18:00:00;;;;;;;1.50;1.40;;;;;;;2.09;100.00;99595.94;10319126;28;20046;-57
2022/02/11 18:05:19;;;;;;;1.30;1.20;;;;;;;2.12;100.00;99598.44;10316813;28;20043;-61
2022/02/11 18:10:24;;;;;;;1.88;1.25;;;;;;;2.17;100.00;99595.56;10316561;28;20056;-58
2022/02/11 18:15:27;;;;;;;2.88;1.45;;;;;;;2.16;100.00;99609.78;10321174;28;20042;-59
2022/02/11 18:20:32;;;;;;;1.40;1.30;;;;;;;2.17;100.00;99618.63;10320294;28;20054;-61
2022/02/11 18:25:36;;;;;;;1.50;1.40;;;;;;;2.13;100.00;99642.72;10320724;28;20054;-59
2022/02/11 18:30:39;;;;;;;2.97;1.80;;;;;;;2.11;100.00;99655.22;10318905;28;20523;-61
2022/02/11 18:35:43;;;;;;;2.45;2.10;;;;;;;2.09;100.00;99649.13;10316028;28;20046;-61
2022/02/11 18:40:47;;;;;;;2.08;1.88;;;;;;;2.08;100.00;99667.81;10317212;28;20061;-59
2022/02/11 18:45:51;;;;;;;2.50;2.25;;;;;;;2.08;100.00;99673.97;10302386;28;20042;-59
2022/02/11 18:50:55;;;;;;;3.63;2.17;;;;;;;2.06;100.00;99681.16;10318886;28;20165;-60
2022/02/11 18:56:00;;;;;;;3.17;2.05;;;;;;;2.05;100.00;99698.06;10301820;28;20046;-59
2022/02/11 19:01:05;;;;;;;3.15;1.88;;;;;;;2.09;100.00;99712.06;10313185;28;20046;-61
2022/02/11 19:06:08;;;;;;;2.70;1.92;;;;;;;2.10;100.00;99717.31;10314490;28;20039;-60
2022/02/11 19:11:13;;;;;;;3.53;2.00;;;;;;;2.09;100.00;99720.91;10315029;28;20471;-63
2022/02/11 19:16:16;;;;;;;3.20;2.20;;;;;;;2.09;100.00;99736.84;10317572;28;20125;-64
2022/02/11 19:21:19;;;;;;;3.13;2.10;;;;;;;2.11;100.00;99729.66;10318022;28;20068;-64
2022/02/11 19:26:24;;;;;;;3.92;2.53;;;;;;;1.97;100.00;99753.38;10316898;28;20042;-63
2022/02/11 19:31:27;;;;;;;3.78;2.60;;;;;;;1.77;100.00;99787.09;10300268;28;20908;-65
2022/02/11 19:36:30;;;;;;;3.17;1.98;;;;;;;1.42;100.00;99818.78;10317703;28;20039;-64
2022/02/11 19:41:35;;;;;;;4.07;1.85;;;;;;;1.16;100.00;99799.56;10296464;28;20050;-64
2022/02/11 19:46:38;;;;;;;5.10;1.90;;;;;;;1.06;100.00;99800.91;10317319;28;20066;-62
2022/02/11 19:51:41;;;;;;;5.10;1.90;;;;;;;1.04;100.00;99803.63;10317348;28;20043;-61
2022/02/11 19:56:47;;;;;;;4.38;1.65;;;;;;;1.01;100.00;99806.41;10297722;28;20046;-62
2022/02/11 20:01:50;;;;;;;8.57;2.10;;;;;;;1.06;100.00;99815.00;10315472;28;20048;-62
2022/02/11 20:06:53;;;;;;;3.97;1.50;;;;;;;1.05;100.00;99823.06;10316505;28;20057;-61
2022/02/11 20:11:57;;;;;;;4.30;1.83;;;;;;;1.07;100.00;99827.38;10313393;28;20047;-63
2022/02/11 20:17:03;;;;;;;3.75;1.40;;;;;;;1.08;100.00;99829.09;10315710;28;20049;-63
2022/02/11 20:22:06;;;;;;;4.53;1.63;;;;;;;1.13;100.00;99844.81;10316701;28;20046;-63
2022/02/11 20:27:11;;;;;;;5.63;1.65;;;;;;;1.12;100.00;99856.34;10316031;28;20046;-64
2022/02/11 20:32:14;;;;;;;4.63;1.52;;;;;;;1.15;100.00;99872.16;10315878;28;20520;-64
2022/02/11 20:37:17;;;;;;;7.13;1.65;;;;;;;1.19;100.00;99867.59;10315175;28;20043;-64
2022/02/11 20:42:22;;;;;;;5.72;1.65;;;;;;;1.22;100.00;99873.66;10312507;28;20931;-64
2022/02/11 20:47:25;;;;;;;5.45;1.58;;;;;;;1.17;100.00;99888.91;10313327;28;20447;-63
2022/02/11 20:52:28;;;;;;;4.80;1.67;;;;;;;1.17;100.00;99896.84;10323040;28;20049;-63
2022/02/11 20:57:33;;;;;;;4.00;1.90;;;;;;;1.15;100.00;99914.63;10322207;28;20049;-63
2022/02/11 21:02:37;;;;;;;5.40;2.08;;;;;;;1.17;100.00;99927.88;10304476;28;20058;-64
2022/02/11 21:07:48;;;;;;;5.30;1.80;;;;;;;1.18;100.00;99925.13;10321677;28;20580;-63
2022/02/11 21:12:53;;;;;;;4.60;2.08;;;;;;;1.22;100.00;99925.88;10304825;28;20162;-63
2022/02/11 21:17:56;;;;;;;5.53;2.20;;;;;;;1.24;100.00;99939.94;10320605;28;20042;-63
2022/02/11 21:23:00;;;;;;;7.15;2.60;;;;;;;1.25;100.00;99948.75;10321127;28;20066;-63
2022/02/11 21:28:04;;;;;;;8.30;2.38;;;;;;;1.43;100.00;99950.66;10320715;28;20043;-62
2022/02/11 21:33:08;;;;;;;5.65;2.00;;;;;;;1.56;100.00;99955.44;10320843;28;20066;-63
2022/02/11 21:38:11;;;;;;;7.15;2.20;;;;;;;1.53;100.00;99949.34;10302215;28;20210;-63
2022/02/11 21:43:15;;;;;;;3.03;1.70;;;;;;;1.50;100.00;99949.44;10319226;28;20048;-64
2022/02/11 21:48:18;;;;;;;6.10;2.00;;;;;;;1.54;100.00;99951.06;10318022;28;20054;-63
2022/02/11 21:53:21;;;;;;;7.55;1.83;;;;;;;1.47;100.00;99956.69;10320225;28;20137;-63
2022/02/11 21:58:26;;;;;;;5.60;1.83;;;;;;;1.49;100.00;99953.03;10321856;28;20109;-62
2022/02/11 22:03:29;;;;;;;4.45;1.67;;;;;;;1.41;100.00;99939.22;10320138;28;20043;-61
2022/02/11 22:08:33;;;;;;;5.10;1.70;;;;;;;1.37;100.00;99948.25;10321885;28;20066;-63
2022/02/11 22:13:39;;;;;;;5.72;1.77;;;;;;;1.35;100.00;99960.75;10319413;28;20038;-63
2022/02/11 22:19:02;;;;;;;5.68;1.85;;;;;;;1.17;100.00;99971.19;10320250;28;20047;-63
2022/02/11 22:24:06;;;;;;;6.45;2.20;;;;;;;1.05;100.00;99967.25;10301456;28;20046;-62
2022/02/11 22:29:11;;;;;;;5.25;1.80;;;;;;;0.96;100.00;99969.41;10316627;28;20038;-62
2022/02/11 22:34:34;;;;;;;8.25;2.20;;;;;;;0.88;100.00;99981.19;10274599;28;20055;-64
2022/02/11 22:39:37;;;;;;;8.10;2.20;;;;;;;0.80;100.00;99991.25;10274018;28;20050;-64
2022/02/11 22:44:42;;;;;;;10.20;2.50;;;;;;;0.73;100.00;99989.78;10279451;28;20150;-64
2022/02/11 22:55:07;;;;;;;6.63;2.20;;;;;;;0.54;100.00;99979.00;10274379;28;20042;-65
2022/02/11 23:00:31;;;;;;;8.65;2.17;;;;;;;0.44;100.00;99983.78;10279301;28;20455;-64
2022/02/11 23:10:57;;;;;;;11.27;2.60;;;;;;;0.37;100.00;99996.41;10277141;28;20055;-64
2022/02/11 23:16:02;;;;;;;9.40;2.65;;;;;;;0.35;100.00;99992.09;10278019;28;20060;-62
2022/02/11 23:21:05;;;;;;;9.13;2.50;;;;;;;0.38;100.00;99992.00;10277216;28;20308;-63
2022/02/11 23:26:10;;;;;;;12.27;2.50;;;;;;;0.27;100.00;99997.69;10273466;28;20057;-64
2022/02/11 23:31:15;;;;;;;10.18;2.45;;;;;;;0.22;100.00;100003.16;10287583;28;20055;-62
2022/02/11 23:36:20;;;;;;;10.95;2.60;;;;;;;0.13;100.00;99996.41;10316355;28;20092;-62
2022/02/11 23:41:23;;;;;;;10.50;3.17;;;;;;;0.08;100.00;100010.75;10318161;28;20046;-64
2022/02/11 23:46:27;;;;;;;13.27;2.78;;;;;;;-0.02;100.00;100011.06;10318472;28;20125;-64
2022/02/11 23:51:30;;;;;;;10.30;3.13;;;;;;;-0.10;100.00;100026.38;10317961;28;20570;-62
2022/02/11 23:56:33;;;;;;;12.15;3.20;;;;;;;-0.18;100.00;100025.81;10303681;28;20050;-62
